Time;durP1;ratioP1;P1;durP2;ratioP2;P2;SDS_P1;SDS_P2;PMS_P1;PMS_P2;Temp;Humidity;BMP_temperature;BMP_pressure;BME280_temperature;BME280_humidity;BME280_pressure;Samples;Min_cycle;Max_cycle;Signal;HPM_P1;HPM_P2
2023/07/15 00:01:21;;;;;;;2.85;2.65;;;;;;;;;;5076396;28;20216;-61
2023/07/15 00:03:49;;;;;;;2.60;2.40;;;;;;;;;;5061754;28;20247;-61
2023/07/15 00:06:17;;;;;;;4.03;2.67;;;;;;;;;;5062021;28;20234;-61
2023/07/15 00:08:45;;;;;;;3.67;2.42;;;;;;;;;;5059576;28;21099;-60
2023/07/15 00:11:29;;;;;;;3.08;2.40;;;;;;;;;;5080955;28;20285;-62
2023/07/15 00:13:58;;;;;;;4.22;2.67;;;;;;;;;;5093730;28;20207;-61
2023/07/15 00:16:25;;;;;;;3.55;2.30;;;;;;;;;;5084038;28;20250;-61
2023/07/15 00:18:53;;;;;;;3.75;2.60;;;;;;;;;;5090976;28;20228;-61
2023/07/15 00:21:22;;;;;;;3.10;2.80;;;;;;;;;;5084156;28;20233;-61
2023/07/15 00:23:55;;;;;;;2.90;2.70;;;;;;;;;;5087797;28;20209;-61
2023/07/15 00:26:24;;;;;;;2.97;2.42;;;;;;;;;;5071635;28;20205;-61
2023/07/15 00:28:51;;;;;;;6.25;2.80;;;;;;;;;;5088282;28;20244;-61
2023/07/15 00:31:20;;;;;;;3.78;2.70;;;;;;;;;;5062186;28;20236;-61
2023/07/15 00:33:48;;;;;;;2.78;2.53;;;;;;;;;;5061838;28;20214;-62
2023/07/15 00:36:17;;;;;;;2.55;2.40;;;;;;;;;;5041419;28;20304;-61
2023/07/15 00:38:45;;;;;;;2.83;2.33;;;;;;;;;;5059078;28;20656;-61
2023/07/15 00:41:19;;;;;;;3.45;2.67;;;;;;;;;;5059728;28;20228;-61
2023/07/15 00:44:05;;;;;;;4.45;2.67;;;;;;;;;;5066738;28;20204;-62
2023/07/15 00:46:55;;;;;;;3.00;2.80;;;;;;;;;;5062695;28;20205;-61
2023/07/15 00:49:24;;;;;;;2.60;2.40;;;;;;;;;;5046188;28;20232;-62
2023/07/15 00:52:08;;;;;;;2.75;2.53;;;;;;;;;;5058705;28;20228;-61
2023/07/15 00:54:36;;;;;;;2.72;2.33;;;;;;;;;;5065407;28;20576;-61
2023/07/15 00:57:06;;;;;;;2.15;2.05;;;;;;;;;;5080330;28;20209;-61
2023/07/15 00:59:33;;;;;;;3.10;2.40;;;;;;;;;;5076241;28;20243;-62
2023/07/15 01:02:01;;;;;;;3.05;2.67;;;;;;;;;;5074193;28;20243;-61
2023/07/15 01:04:28;;;;;;;2.38;2.17;;;;;;;;;;5060050;28;20579;-61
2023/07/15 01:06:55;;;;;;;4.80;2.50;;;;;;;;;;5060249;28;20201;-61
2023/07/15 01:09:24;;;;;;;3.47;2.50;;;;;;;;;;5061677;28;20729;-61
2023/07/15 01:11:51;;;;;;;2.70;2.50;;;;;;;;;;5053194;28;20220;-62
2023/07/15 01:14:18;;;;;;;3.50;2.53;;;;;;;;;;5065491;28;20212;-61
2023/07/15 01:16:47;;;;;;;2.38;2.17;;;;;;;;;;5059414;28;20258;-61
2023/07/15 01:19:18;;;;;;;2.67;2.47;;;;;;;;;;5049802;28;20228;-61
2023/07/15 01:21:49;;;;;;;2.67;2.47;;;;;;;;;;5062114;28;20308;-61
2023/07/15 01:24:17;;;;;;;3.03;2.50;;;;;;;;;;5058692;28;20200;-61
2023/07/15 01:26:45;;;;;;;3.80;2.50;;;;;;;;;;5067665;28;20193;-61
2023/07/15 01:29:15;;;;;;;3.22;2.45;;;;;;;;;;5069139;28;20221;-61
2023/07/15 01:31:43;;;;;;;2.70;2.42;;;;;;;;;;5080085;28;20221;-62
2023/07/15 01:34:12;;;;;;;6.22;2.60;;;;;;;;;;5081891;28;20256;-62
2023/07/15 01:36:39;;;;;;;5.15;2.50;;;;;;;;;;5075282;28;20225;-62
2023/07/15 01:39:07;;;;;;;2.70;2.50;;;;;;;;;;5076288;28;20346;-62
2023/07/15 01:41:36;;;;;;;2.75;2.22;;;;;;;;;;5087307;28;20249;-63
2023/07/15 01:44:04;;;;;;;4.45;2.40;;;;;;;;;;5076286;28;20263;-62
2023/07/15 01:46:34;;;;;;;3.90;2.53;;;;;;;;;;5068725;28;20228;-62
2023/07/15 01:49:03;;;;;;;3.15;2.28;;;;;;;;;;5083613;28;20301;-62
2023/07/15 01:51:31;;;;;;;4.40;2.63;;;;;;;;;;5081583;28;20289;-62
2023/07/15 01:53:58;;;;;;;5.35;2.60;;;;;;;;;;5069462;28;20212;-62
2023/07/15 01:56:26;;;;;;;5.05;2.88;;;;;;;;;;5080535;28;20764;-62
2023/07/15 01:58:53;;;;;;;2.92;2.53;;;;;;;;;;5063672;28;20232;-62
2023/07/15 02:01:20;;;;;;;2.92;2.45;;;;;;;;;;5083793;28;20230;-62
2023/07/15 02:03:48;;;;;;;3.15;2.55;;;;;;;;;;5081502;28;20719;-62
2023/07/15 02:06:16;;;;;;;2.88;2.30;;;;;;;;;;5079267;28;20286;-61
2023/07/15 02:08:44;;;;;;;2.53;2.33;;;;;;;;;;5061813;28;20201;-62
2023/07/15 02:11:12;;;;;;;2.40;2.20;;;;;;;;;;5071711;28;20229;-62
2023/07/15 02:13:39;;;;;;;2.70;2.50;;;;;;;;;;5092442;28;20263;-61
2023/07/15 02:16:06;;;;;;;6.00;2.97;;;;;;;;;;5088789;28;20258;-62
2023/07/15 02:18:34;;;;;;;4.70;2.50;;;;;;;;;;5075871;28;20665;-62
2023/07/15 02:21:01;;;;;;;3.53;2.42;;;;;;;;;;5083557;28;20277;-62
2023/07/15 02:23:29;;;;;;;2.72;2.53;;;;;;;;;;5090469;28;20205;-62
2023/07/15 02:25:57;;;;;;;5.13;2.97;;;;;;;;;;5079345;28;20204;-62
2023/07/15 02:28:26;;;;;;;3.42;2.45;;;;;;;;;;5070215;28;20198;-62
2023/07/15 02:30:55;;;;;;;2.97;2.65;;;;;;;;;;5084452;28;20226;-62
2023/07/15 02:33:23;;;;;;;2.70;2.50;;;;;;;;;;5085510;28;20211;-62
2023/07/15 02:35:52;;;;;;;2.85;2.40;;;;;;;;;;5070098;28;20202;-62
2023/07/15 02:38:19;;;;;;;6.40;2.33;;;;;;;;;;5075693;28;20204;-62
2023/07/15 02:40:47;;;;;;;3.38;2.70;;;;;;;;;;5070557;28;20252;-62
2023/07/15 02:43:14;;;;;;;7.07;2.70;;;;;;;;;;5076589;28;20206;-63
2023/07/15 02:45:42;;;;;;;2.90;2.58;;;;;;;;;;5083079;28;20731;-63
2023/07/15 02:48:09;;;;;;;2.95;2.75;;;;;;;;;;5079820;28;20201;-63
2023/07/15 02:50:36;;;;;;;2.90;2.70;;;;;;;;;;5089753;28;20710;-62
2023/07/15 02:53:04;;;;;;;3.03;2.72;;;;;;;;;;5087064;28;20200;-62
2023/07/15 02:55:31;;;;;;;2.78;2.58;;;;;;;;;;5072953;28;20422;-62
2023/07/15 02:57:58;;;;;;;2.95;2.70;;;;;;;;;;5070347;28;20627;-62
2023/07/15 03:00:26;;;;;;;6.35;3.20;;;;;;;;;;5078058;28;20232;-62
2023/07/15 03:02:53;;;;;;;3.30;3.00;;;;;;;;;;5063870;28;20903;-62
2023/07/15 03:05:21;;;;;;;6.20;5.60;;;;;;;;;;5073292;28;20200;-62
2023/07/15 03:07:49;;;;;;;3.67;3.38;;;;;;;;;;5062325;28;20223;-62
2023/07/15 03:10:18;;;;;;;4.72;3.10;;;;;;;;;;5049153;28;20312;-62
2023/07/15 03:12:49;;;;;;;4.65;2.90;;;;;;;;;;5064435;28;20209;-61
2023/07/15 03:15:16;;;;;;;3.13;2.55;;;;;;;;;;5065400;28;20201;-62
2023/07/15 03:17:44;;;;;;;3.45;2.85;;;;;;;;;;5073138;28;20613;-62
2023/07/15 03:20:30;;;;;;;5.18;3.40;;;;;;;;;;5075333;28;22257;-62
2023/07/15 03:22:58;;;;;;;3.13;2.83;;;;;;;;;;5073928;28;20200;-63
2023/07/15 03:25:25;;;;;;;3.55;2.92;;;;;;;;;;5071156;28;20223;-62
2023/07/15 03:27:52;;;;;;;3.15;2.63;;;;;;;;;;5071237;28;20201;-61
2023/07/15 03:30:20;;;;;;;3.28;2.97;;;;;;;;;;5061146;28;20229;-62
2023/07/15 03:32:47;;;;;;;3.38;2.90;;;;;;;;;;5082821;28;20213;-61
2023/07/15 03:35:15;;;;;;;3.03;2.67;;;;;;;;;;5087119;28;20658;-61
2023/07/15 03:37:44;;;;;;;3.10;2.80;;;;;;;;;;5082606;28;20727;-61
2023/07/15 03:40:12;;;;;;;3.65;3.00;;;;;;;;;;5082130;28;20642;-61
2023/07/15 03:42:40;;;;;;;3.67;3.38;;;;;;;;;;5070636;28;21882;-61
2023/07/15 03:45:08;;;;;;;4.88;3.30;;;;;;;;;;5059233;28;20824;-61
2023/07/15 03:47:35;;;;;;;8.35;3.13;;;;;;;;;;5055625;28;20201;-61
2023/07/15 03:50:05;;;;;;;5.43;3.22;;;;;;;;;;5057858;28;20759;-61
2023/07/15 03:52:32;;;;;;;4.38;3.15;;;;;;;;;;5072617;28;20623;-61
2023/07/15 03:55:00;;;;;;;4.20;3.20;;;;;;;;;;5076006;28;20418;-61
2023/07/15 03:57:27;;;;;;;5.28;3.10;;;;;;;;;;5075419;28;20549;-61
2023/07/15 03:59:55;;;;;;;4.13;3.03;;;;;;;;;;5051773;28;20722;-61
2023/07/15 04:02:22;;;;;;;3.72;2.78;;;;;;;;;;5071717;28;20221;-60
2023/07/15 04:04:49;;;;;;;3.35;3.13;;;;;;;;;;5069765;28;20201;-61
2023/07/15 04:07:17;;;;;;;3.72;2.92;;;;;;;;;;5069916;28;20228;-61
2023/07/15 04:09:45;;;;;;;5.13;2.70;;;;;;;;;;5059280;28;20255;-62
2023/07/15 04:12:13;;;;;;;3.45;2.97;;;;;;;;;;5080154;28;20233;-62
2023/07/15 04:14:41;;;;;;;3.28;2.97;;;;;;;;;;5060764;28;20292;-62
2023/07/15 04:17:08;;;;;;;4.68;3.15;;;;;;;;;;5082327;28;20228;-62
2023/07/15 04:19:35;;;;;;;3.38;2.78;;;;;;;;;;5066129;28;20278;-62
2023/07/15 04:22:03;;;;;;;3.45;2.70;;;;;;;;;;5071553;28;20244;-61
2023/07/15 04:24:30;;;;;;;5.40;2.88;;;;;;;;;;5070757;28;20193;-61
2023/07/15 04:26:57;;;;;;;4.22;2.85;;;;;;;;;;5088919;28;20254;-62
2023/07/15 04:29:25;;;;;;;3.60;2.70;;;;;;;;;;5080308;28;20212;-62
2023/07/15 04:31:52;;;;;;;3.33;3.08;;;;;;;;;;5087260;28;20224;-62
2023/07/15 04:34:19;;;;;;;3.63;3.20;;;;;;;;;;5081330;28;20259;-61
2023/07/15 04:36:49;;;;;;;3.63;3.05;;;;;;;;;;5075488;28;20292;-62
2023/07/15 04:39:17;;;;;;;3.47;3.17;;;;;;;;;;5067994;28;20580;-60
2023/07/15 04:41:44;;;;;;;3.75;3.10;;;;;;;;;;5043802;28;21556;-61
2023/07/15 04:44:11;;;;;;;4.32;3.08;;;;;;;;;;5058137;28;20231;-61
2023/07/15 04:46:38;;;;;;;4.53;3.10;;;;;;;;;;5063651;28;20198;-61
2023/07/15 04:49:06;;;;;;;3.88;3.50;;;;;;;;;;5068474;28;20678;-60
2023/07/15 04:51:35;;;;;;;3.28;3.03;;;;;;;;;;5069119;28;20749;-62
2023/07/15 04:54:03;;;;;;;5.50;3.40;;;;;;;;;;5079687;28;20208;-62
2023/07/15 04:56:30;;;;;;;4.20;3.35;;;;;;;;;;5073864;28;20228;-62
2023/07/15 04:58:58;;;;;;;3.50;3.20;;;;;;;;;;5069795;28;20200;-62
2023/07/15 05:01:25;;;;;;;4.07;3.33;;;;;;;;;;5071451;28;20602;-60
2023/07/15 05:03:53;;;;;;;4.20;3.03;;;;;;;;;;5074623;28;20279;-60
2023/07/15 05:06:21;;;;;;;3.22;2.97;;;;;;;;;;5080235;28;22162;-61
2023/07/15 05:08:48;;;;;;;4.97;3.30;;;;;;;;;;5077668;28;20502;-62
2023/07/15 05:11:17;;;;;;;4.15;3.00;;;;;;;;;;5070444;28;20486;-61
2023/07/15 05:13:44;;;;;;;4.70;3.00;;;;;;;;;;5085883;28;20261;-60
2023/07/15 05:16:11;;;;;;;4.45;2.90;;;;;;;;;;5088141;28;20209;-61
2023/07/15 05:18:39;;;;;;;3.70;3.30;;;;;;;;;;5074936;28;20200;-63
2023/07/15 05:21:06;;;;;;;4.57;3.22;;;;;;;;;;5068671;28;20222;-63
2023/07/15 05:23:34;;;;;;;3.92;3.53;;;;;;;;;;5070797;28;20201;-63
2023/07/15 05:26:01;;;;;;;3.47;2.90;;;;;;;;;;5062914;28;20730;-61
2023/07/15 05:28:32;;;;;;;4.18;3.10;;;;;;;;;;5065403;28;20254;-63
2023/07/15 05:31:00;;;;;;;4.22;2.95;;;;;;;;;;5062621;28;20712;-61
2023/07/15 05:33:28;;;;;;;2.95;2.63;;;;;;;;;;5063157;28;20232;-61
2023/07/15 05:35:56;;;;;;;5.75;2.60;;;;;;;;;;5079469;28;20577;-62
2023/07/15 05:38:25;;;;;;;3.45;2.30;;;;;;;;;;5066277;28;20210;-63
2023/07/15 05:40:52;;;;;;;2.38;2.17;;;;;;;;;;5048026;28;20048;-60
2023/07/15 05:43:20;;;;;;;2.75;2.47;;;;;;;;;;5068954;28;20204;-61
2023/07/15 05:45:47;;;;;;;2.30;2.10;;;;;;;;;;5066153;28;20220;-62
2023/07/15 05:48:14;;;;;;;2.97;2.00;;;;;;;;;;5074333;28;20208;-61
2023/07/15 05:50:42;;;;;;;2.20;2.00;;;;;;;;;;5077681;28;20228;-61
2023/07/15 05:53:10;;;;;;;2.30;2.10;;;;;;;;;;5077586;28;20634;-63
2023/07/15 05:55:38;;;;;;;2.25;1.80;;;;;;;;;;5075385;28;20200;-60
2023/07/15 05:58:09;;;;;;;3.03;2.30;;;;;;;;;;5077847;28;20204;-60
2023/07/15 06:00:41;;;;;;;2.70;2.50;;;;;;;;;;5068443;28;20347;-61
2023/07/15 06:03:08;;;;;;;3.85;3.00;;;;;;;;;;5067979;28;20234;-61
2023/07/15 06:05:36;;;;;;;4.30;3.90;;;;;;;;;;5069286;28;20247;-62
2023/07/15 06:08:04;;;;;;;5.60;4.40;;;;;;;;;;5064368;28;20241;-62
2023/07/15 06:10:31;;;;;;;4.35;3.55;;;;;;;;;;5081032;28;20232;-63
2023/07/15 06:13:01;;;;;;;3.85;3.40;;;;;;;;;;5079003;28;20683;-62
2023/07/15 06:15:28;;;;;;;3.40;3.10;;;;;;;;;;5081490;28;20631;-61
2023/07/15 06:17:57;;;;;;;3.47;3.00;;;;;;;;;;5079011;28;20216;-63
2023/07/15 06:20:24;;;;;;;4.80;3.10;;;;;;;;;;5078649;28;20647;-62
2023/07/15 06:22:52;;;;;;;3.90;2.88;;;;;;;;;;5064291;28;20205;-62
2023/07/15 06:25:19;;;;;;;4.07;2.83;;;;;;;;;;5082236;28;20192;-62
2023/07/15 06:27:47;;;;;;;3.42;2.90;;;;;;;;;;5082106;28;20201;-61
2023/07/15 06:30:14;;;;;;;2.78;2.40;;;;;;;;;;5083056;28;20324;-62
2023/07/15 06:32:41;;;;;;;3.38;3.08;;;;;;;;;;5076162;28;20742;-61
2023/07/15 06:35:09;;;;;;;3.03;2.80;;;;;;;;;;5080122;28;20198;-62
2023/07/15 06:37:36;;;;;;;3.45;2.63;;;;;;;;;;5078404;28;20209;-60
2023/07/15 06:40:04;;;;;;;5.00;2.60;;;;;;;;;;5081651;28;20220;-64
2023/07/15 06:42:31;;;;;;;2.55;2.35;;;;;;;;;;5082299;28;20239;-62
2023/07/15 06:44:59;;;;;;;2.70;2.40;;;;;;;;;;5080392;28;20205;-59
2023/07/15 06:47:26;;;;;;;2.95;2.65;;;;;;;;;;5095287;28;20226;-60
2023/07/15 06:49:54;;;;;;;2.95;2.58;;;;;;;;;;5098750;28;20219;-60
2023/07/15 06:52:21;;;;;;;3.33;2.10;;;;;;;;;;5091490;28;20205;-60
2023/07/15 06:54:48;;;;;;;2.67;2.47;;;;;;;;;;5090684;28;20255;-61
2023/07/15 06:57:15;;;;;;;2.97;2.70;;;;;;;;;;5089089;28;20204;-63
2023/07/15 06:59:43;;;;;;;4.18;2.53;;;;;;;;;;5082126;28;20212;-61
2023/07/15 07:02:10;;;;;;;2.72;2.40;;;;;;;;;;5059686;28;20224;-60
2023/07/15 07:04:37;;;;;;;4.15;2.60;;;;;;;;;;5075670;28;20202;-61
2023/07/15 07:07:05;;;;;;;3.63;2.70;;;;;;;;;;5082653;28;20197;-61
2023/07/15 07:09:32;;;;;;;4.68;2.45;;;;;;;;;;5058572;28;20216;-61
2023/07/15 07:11:59;;;;;;;5.47;2.65;;;;;;;;;;5076641;28;20252;-60
2023/07/15 07:14:27;;;;;;;2.75;2.20;;;;;;;;;;5077381;28;20215;-64
2023/07/15 07:16:54;;;;;;;3.83;2.67;;;;;;;;;;5062827;28;20678;-60
2023/07/15 07:19:21;;;;;;;2.60;2.40;;;;;;;;;;5073786;28;20257;-60
2023/07/15 07:21:49;;;;;;;2.60;2.25;;;;;;;;;;5075164;28;20295;-61
2023/07/15 07:24:16;;;;;;;3.25;2.40;;;;;;;;;;5082540;28;20208;-61
2023/07/15 07:26:43;;;;;;;3.70;2.55;;;;;;;;;;5075048;28;20202;-62
2023/07/15 07:29:10;;;;;;;2.60;2.40;;;;;;;;;;5055293;28;20646;-61
2023/07/15 07:31:38;;;;;;;3.97;2.10;;;;;;;;;;5076514;28;20225;-62
2023/07/15 07:34:05;;;;;;;3.60;2.20;;;;;;;;;;5070104;28;20739;-63
2023/07/15 07:36:33;;;;;;;2.20;2.10;;;;;;;;;;5074619;28;20707;-61
2023/07/15 07:39:00;;;;;;;2.33;2.13;;;;;;;;;;5079253;28;20676;-64
2023/07/15 07:41:28;;;;;;;2.30;2.10;;;;;;;;;;5073652;28;20250;-62
2023/07/15 07:43:56;;;;;;;2.67;2.40;;;;;;;;;;5076841;28;20217;-62
2023/07/15 07:46:23;;;;;;;2.85;2.55;;;;;;;;;;5072604;28;20646;-62
2023/07/15 07:48:50;;;;;;;2.83;2.58;;;;;;;;;;5074945;28;20205;-62
2023/07/15 07:51:17;;;;;;;2.80;2.15;;;;;;;;;;5076332;28;20221;-63
2023/07/15 07:53:45;;;;;;;2.15;2.05;;;;;;;;;;5075214;28;20692;-61
2023/07/15 07:56:12;;;;;;;2.30;2.10;;;;;;;;;;5071171;28;20216;-61
2023/07/15 07:58:40;;;;;;;3.75;2.40;;;;;;;;;;5070585;28;20939;-60
2023/07/15 08:01:07;;;;;;;2.60;2.40;;;;;;;;;;5082251;28;20250;-62
2023/07/15 08:03:34;;;;;;;2.72;2.20;;;;;;;;;;5073639;28;20205;-62
2023/07/15 08:06:04;;;;;;;2.80;2.30;;;;;;;;;;5075486;28;20275;-62
2023/07/15 08:08:31;;;;;;;2.10;2.00;;;;;;;;;;5072914;28;20209;-62
2023/07/15 08:10:58;;;;;;;2.55;2.13;;;;;;;;;;5073266;28;20294;-63
2023/07/15 08:13:26;;;;;;;2.38;2.17;;;;;;;;;;5074810;28;20572;-62
2023/07/15 08:15:53;;;;;;;3.38;2.33;;;;;;;;;;5074654;28;20201;-62
2023/07/15 08:18:20;;;;;;;2.40;2.20;;;;;;;;;;5058923;28;20223;-62
2023/07/15 08:20:48;;;;;;;2.40;2.20;;;;;;;;;;5078133;28;20616;-64
2023/07/15 08:23:15;;;;;;;3.80;2.22;;;;;;;;;;5073400;28;20209;-63
2023/07/15 08:25:42;;;;;;;2.00;1.90;;;;;;;;;;5074068;28;20792;-63
2023/07/15 08:28:10;;;;;;;3.78;2.40;;;;;;;;;;5075217;28;20202;-62
2023/07/15 08:30:37;;;;;;;2.63;2.20;;;;;;;;;;5078143;28;20227;-64
2023/07/15 08:33:05;;;;;;;6.50;2.30;;;;;;;;;;5055268;28;20303;-60
2023/07/15 08:35:34;;;;;;;3.78;2.33;;;;;;;;;;5070396;28;20239;-61
2023/07/15 08:38:01;;;;;;;3.45;2.10;;;;;;;;;;5075773;28;20295;-61
2023/07/15 08:40:31;;;;;;;4.40;2.50;;;;;;;;;;5075992;28;20285;-60
2023/07/15 08:42:58;;;;;;;2.17;1.95;;;;;;;;;;5078494;28;20205;-63
2023/07/15 08:45:26;;;;;;;4.07;2.30;;;;;;;;;;5060045;28;20273;-61
2023/07/15 08:47:54;;;;;;;4.35;2.25;;;;;;;;;;5078296;28;20200;-61
2023/07/15 08:50:25;;;;;;;3.60;2.20;;;;;;;;;;5064549;28;20225;-62
2023/07/15 08:52:55;;;;;;;5.03;2.80;;;;;;;;;;5060828;28;20274;-61
2023/07/15 08:55:28;;;;;;;2.30;2.20;;;;;;;;;;5059541;28;20208;-62
2023/07/15 08:57:57;;;;;;;2.35;2.15;;;;;;;;;;5074315;28;20300;-62
2023/07/15 09:00:24;;;;;;;2.33;2.13;;;;;;;;;;5073242;28;20548;-62
2023/07/15 09:02:52;;;;;;;3.53;2.40;;;;;;;;;;5076356;28;20209;-63
2023/07/15 09:05:20;;;;;;;2.58;2.30;;;;;;;;;;5071077;28;20216;-62
2023/07/15 09:07:55;;;;;;;2.20;2.00;;;;;;;;;;5058310;28;20251;-62
2023/07/15 09:10:23;;;;;;;3.42;2.22;;;;;;;;;;5072622;28;20789;-63
2023/07/15 09:12:54;;;;;;;3.80;2.30;;;;;;;;;;5083332;28;20246;-62
2023/07/15 09:15:22;;;;;;;3.08;2.10;;;;;;;;;;5081012;28;20456;-62
2023/07/15 09:17:54;;;;;;;3.30;2.20;;;;;;;;;;5076732;28;20206;-60
2023/07/15 09:20:22;;;;;;;2.42;2.22;;;;;;;;;;5063032;28;20734;-60
2023/07/15 09:22:55;;;;;;;3.00;2.50;;;;;;;;;;5082098;28;20201;-63
2023/07/15 09:25:23;;;;;;;2.25;2.10;;;;;;;;;;5078360;28;20263;-63
2023/07/15 09:27:51;;;;;;;4.15;2.50;;;;;;;;;;5077800;28;20936;-61
2023/07/15 09:30:19;;;;;;;2.42;2.22;;;;;;;;;;5079778;28;20688;-61
2023/07/15 09:32:47;;;;;;;3.08;2.30;;;;;;;;;;5078431;28;20205;-61
2023/07/15 09:35:15;;;;;;;6.13;2.33;;;;;;;;;;5076101;28;20230;-62
2023/07/15 09:37:42;;;;;;;4.57;2.42;;;;;;;;;;5081184;28;20747;-62
2023/07/15 09:40:10;;;;;;;2.30;2.10;;;;;;;;;;5077482;28;20208;-61
2023/07/15 09:42:50;;;;;;;3.55;2.00;;;;;;;;;;5089092;28;20318;-63
2023/07/15 09:45:37;;;;;;;6.13;2.38;;;;;;;;;;5105409;28;20208;-61
2023/07/15 09:48:06;;;;;;;2.75;2.28;;;;;;;;;;5067315;28;20193;-63
2023/07/15 09:50:35;;;;;;;3.58;2.60;;;;;;;;;;5078506;28;20304;-61
2023/07/15 09:53:03;;;;;;;2.38;2.17;;;;;;;;;;5065485;28;20211;-62
2023/07/15 09:55:32;;;;;;;2.15;2.05;;;;;;;;;;5084525;28;20202;-61
2023/07/15 09:58:09;;;;;;;2.63;2.22;;;;;;;;;;5065885;28;20243;-63
2023/07/15 10:00:38;;;;;;;3.75;2.17;;;;;;;;;;5084395;28;20217;-61
2023/07/15 10:03:06;;;;;;;3.85;2.08;;;;;;;;;;5063457;28;20218;-62
2023/07/15 10:05:33;;;;;;;2.05;1.85;;;;;;;;;;5061269;28;20272;-61
2023/07/15 10:08:00;;;;;;;3.13;1.90;;;;;;;;;;5067426;28;20202;-62
2023/07/15 10:10:28;;;;;;;2.35;1.80;;;;;;;;;;5066126;28;20226;-62
2023/07/15 10:12:55;;;;;;;4.82;2.08;;;;;;;;;;5072379;28;20722;-61
2023/07/15 10:15:24;;;;;;;2.05;1.95;;;;;;;;;;5077316;28;20198;-62
2023/07/15 10:17:51;;;;;;;1.95;1.85;;;;;;;;;;5063325;28;20193;-62
2023/07/15 10:20:19;;;;;;;4.15;2.03;;;;;;;;;;5070154;28;20229;-62
2023/07/15 10:22:48;;;;;;;2.65;1.95;;;;;;;;;;5081548;28;20224;-61
2023/07/15 10:25:15;;;;;;;2.65;2.13;;;;;;;;;;5073943;28;20212;-62
2023/07/15 10:27:43;;;;;;;2.25;2.08;;;;;;;;;;5077137;28;20232;-60
2023/07/15 10:30:15;;;;;;;2.45;1.90;;;;;;;;;;5078990;28;20197;-61
2023/07/15 10:33:01;;;;;;;2.92;2.15;;;;;;;;;;5080107;28;20202;-62
2023/07/15 10:35:29;;;;;;;3.65;1.95;;;;;;;;;;5071789;28;20239;-62
2023/07/15 10:38:01;;;;;;;2.10;2.00;;;;;;;;;;5078763;28;20212;-61
2023/07/15 10:40:49;;;;;;;2.80;2.25;;;;;;;;;;5080922;28;20229;-61
2023/07/15 10:43:23;;;;;;;2.00;1.90;;;;;;;;;;5079710;28;20201;-63
2023/07/15 10:45:54;;;;;;;3.50;2.17;;;;;;;;;;5079810;28;20249;-60
2023/07/15 10:48:22;;;;;;;2.67;2.47;;;;;;;;;;5075681;28;20258;-62
2023/07/15 10:50:53;;;;;;;4.22;2.50;;;;;;;;;;5076397;28;20240;-60
2023/07/15 10:53:25;;;;;;;2.53;2.30;;;;;;;;;;5090792;28;20570;-61
2023/07/15 10:55:54;;;;;;;2.72;2.45;;;;;;;;;;5088824;28;20204;-62
2023/07/15 10:58:21;;;;;;;3.20;2.90;;;;;;;;;;5097590;28;20245;-62
2023/07/15 11:00:49;;;;;;;2.60;2.40;;;;;;;;;;5062698;28;20229;-62
2023/07/15 11:03:20;;;;;;;3.13;2.40;;;;;;;;;;5057413;28;20213;-62
2023/07/15 11:05:47;;;;;;;3.55;2.17;;;;;;;;;;5080724;28;20204;-62
2023/07/15 11:08:17;;;;;;;2.75;2.45;;;;;;;;;;5064608;28;20215;-62
2023/07/15 11:10:44;;;;;;;4.05;2.30;;;;;;;;;;5075729;28;20240;-62
2023/07/15 11:13:13;;;;;;;2.95;2.00;;;;;;;;;;5076818;28;20208;-61
2023/07/15 11:15:41;;;;;;;2.03;1.92;;;;;;;;;;5076300;28;20614;-61
2023/07/15 11:18:16;;;;;;;3.88;2.13;;;;;;;;;;5056947;28;20211;-61
2023/07/15 11:20:45;;;;;;;2.35;2.00;;;;;;;;;;5062093;28;20270;-61
2023/07/15 11:23:12;;;;;;;2.63;2.30;;;;;;;;;;5076774;28;20203;-62
2023/07/15 11:25:43;;;;;;;2.20;2.10;;;;;;;;;;5080538;28;20201;-63
2023/07/15 11:28:11;;;;;;;2.22;2.00;;;;;;;;;;5074178;28;20196;-61
2023/07/15 11:30:43;;;;;;;2.53;2.30;;;;;;;;;;5073878;28;20258;-62
2023/07/15 11:33:10;;;;;;;2.67;2.22;;;;;;;;;;5063485;28;20197;-62
2023/07/15 11:35:38;;;;;;;3.22;2.00;;;;;;;;;;5077796;28;20226;-62
2023/07/15 11:38:15;;;;;;;2.72;2.28;;;;;;;;;;5078959;28;20588;-62
2023/07/15 11:40:54;;;;;;;2.33;2.13;;;;;;;;;;5074618;28;20224;-63
2023/07/15 11:43:23;;;;;;;2.67;2.05;;;;;;;;;;5075982;28;20565;-61
2023/07/15 11:45:53;;;;;;;2.65;2.08;;;;;;;;;;5067267;28;20197;-61
2023/07/15 11:48:25;;;;;;;2.80;2.15;;;;;;;;;;5069106;28;20681;-61
2023/07/15 11:50:56;;;;;;;4.03;2.53;;;;;;;;;;5080490;28;20234;-61
2023/07/15 11:53:23;;;;;;;2.38;2.17;;;;;;;;;;5076276;28;20680;-62
2023/07/15 11:55:51;;;;;;;2.55;1.90;;;;;;;;;;5059981;28;20204;-62
2023/07/15 11:58:37;;;;;;;1.98;1.88;;;;;;;;;;5079812;28;20227;-62
2023/07/15 12:01:05;;;;;;;1.75;1.65;;;;;;;;;;5063691;28;20217;-61
2023/07/15 12:03:32;;;;;;;2.20;1.98;;;;;;;;;;5073362;28;20196;-60
2023/07/15 12:06:00;;;;;;;1.60;1.50;;;;;;;;;;5064904;28;20226;-62
2023/07/15 12:08:27;;;;;;;2.08;1.52;;;;;;;;;;5076113;28;20710;-61
2023/07/15 12:10:55;;;;;;;1.50;1.40;;;;;;;;;;5076738;28;20566;-61
2023/07/15 12:13:22;;;;;;;1.70;1.58;;;;;;;;;;5083874;28;20296;-62
2023/07/15 12:15:50;;;;;;;2.75;1.70;;;;;;;;;;5089788;28;20204;-62
2023/07/15 12:18:17;;;;;;;1.98;1.75;;;;;;;;;;5090838;28;20544;-62
2023/07/15 12:20:44;;;;;;;1.92;1.63;;;;;;;;;;5089853;28;20251;-61
2023/07/15 12:23:12;;;;;;;2.70;1.58;;;;;;;;;;5069762;28;20236;-61
2023/07/15 12:25:39;;;;;;;2.22;1.50;;;;;;;;;;5091234;28;20259;-61
2023/07/15 12:28:06;;;;;;;1.80;1.70;;;;;;;;;;5076576;28;20220;-63
2023/07/15 12:30:33;;;;;;;3.10;1.75;;;;;;;;;;5082341;28;20216;-63
2023/07/15 12:33:01;;;;;;;1.90;1.80;;;;;;;;;;5079046;28;20209;-62
2023/07/15 12:35:29;;;;;;;4.03;1.73;;;;;;;;;;5085015;28;20204;-63
2023/07/15 12:37:56;;;;;;;2.10;1.88;;;;;;;;;;5073954;28;20723;-63
2023/07/15 12:40:23;;;;;;;1.85;1.75;;;;;;;;;;5078868;28;20410;-63
2023/07/15 12:42:50;;;;;;;1.80;1.70;;;;;;;;;;5071546;28;20695;-63
2023/07/15 12:45:18;;;;;;;2.08;1.95;;;;;;;;;;5067673;28;20228;-62
2023/07/15 12:47:45;;;;;;;2.55;1.73;;;;;;;;;;5077742;28;20255;-62
2023/07/15 12:50:13;;;;;;;2.83;1.88;;;;;;;;;;5070509;28;20531;-62
2023/07/15 12:52:40;;;;;;;4.18;2.05;;;;;;;;;;5075058;28;20345;-64
2023/07/15 12:55:07;;;;;;;2.13;1.90;;;;;;;;;;5070359;28;20254;-61
2023/07/15 12:57:35;;;;;;;2.45;1.80;;;;;;;;;;5064717;28;20714;-60
2023/07/15 13:00:05;;;;;;;2.00;1.90;;;;;;;;;;5080103;28;20205;-61
2023/07/15 13:02:32;;;;;;;1.80;1.70;;;;;;;;;;5070490;28;20228;-61
2023/07/15 13:04:59;;;;;;;1.80;1.70;;;;;;;;;;5074061;28;20200;-60
2023/07/15 13:07:27;;;;;;;1.98;1.88;;;;;;;;;;5078686;28;20569;-63
2023/07/15 13:09:54;;;;;;;2.00;1.83;;;;;;;;;;5059050;28;20254;-62
2023/07/15 13:12:21;;;;;;;2.88;1.73;;;;;;;;;;5060150;28;20216;-62
2023/07/15 13:14:49;;;;;;;1.77;1.67;;;;;;;;;;5062028;28;20845;-62
2023/07/15 13:17:16;;;;;;;2.10;2.00;;;;;;;;;;5060625;28;20736;-62
2023/07/15 13:19:43;;;;;;;1.90;1.80;;;;;;;;;;5072061;28;20200;-62
2023/07/15 13:22:10;;;;;;;2.13;1.90;;;;;;;;;;5078573;28;20221;-62
2023/07/15 13:24:38;;;;;;;3.10;1.80;;;;;;;;;;5089404;28;20201;-62
2023/07/15 13:27:05;;;;;;;1.90;1.80;;;;;;;;;;5095061;28;20196;-62
2023/07/15 13:29:33;;;;;;;2.33;2.13;;;;;;;;;;5060440;28;20201;-62
2023/07/15 13:32:00;;;;;;;2.40;2.20;;;;;;;;;;5064598;28;20232;-61
2023/07/15 13:34:27;;;;;;;2.17;2.00;;;;;;;;;;5077616;28;20665;-63
2023/07/15 13:36:54;;;;;;;2.47;2.00;;;;;;;;;;5076223;28;20555;-62
2023/07/15 13:39:33;;;;;;;2.15;1.95;;;;;;;;;;5075434;28;20212;-60
2023/07/15 13:42:00;;;;;;;2.53;1.70;;;;;;;;;;5075587;28;20232;-62
2023/07/15 13:44:28;;;;;;;2.05;1.85;;;;;;;;;;5079088;28;20200;-61
2023/07/15 13:46:55;;;;;;;2.50;1.92;;;;;;;;;;5077717;28;20300;-61
2023/07/15 13:49:22;;;;;;;2.50;2.00;;;;;;;;;;5063566;28;20742;-61
2023/07/15 13:51:49;;;;;;;2.80;2.20;;;;;;;;;;5079865;28;20509;-62
2023/07/15 13:54:17;;;;;;;2.53;2.20;;;;;;;;;;5063338;28;20212;-61
2023/07/15 13:56:44;;;;;;;3.72;2.17;;;;;;;;;;5063012;28;20200;-61
2023/07/15 13:59:12;;;;;;;2.30;2.10;;;;;;;;;;5063039;28;20235;-61
2023/07/15 14:01:39;;;;;;;2.40;2.20;;;;;;;;;;5067057;28;20293;-61
2023/07/15 14:04:08;;;;;;;2.10;1.95;;;;;;;;;;5065023;28;20296;-61
2023/07/15 14:06:35;;;;;;;2.47;1.77;;;;;;;;;;5056960;28;20196;-61
2023/07/15 14:09:03;;;;;;;1.80;1.70;;;;;;;;;;5062336;28;20207;-60
2023/07/15 14:11:30;;;;;;;2.60;1.80;;;;;;;;;;5049993;28;20216;-61
2023/07/15 14:13:58;;;;;;;2.35;2.15;;;;;;;;;;5065521;28;20204;-62
2023/07/15 14:16:25;;;;;;;1.88;1.77;;;;;;;;;;5057996;28;20200;-61
2023/07/15 14:18:52;;;;;;;2.00;1.90;;;;;;;;;;5073219;28;20244;-60
2023/07/15 14:21:20;;;;;;;2.08;1.90;;;;;;;;;;5066339;28;20342;-62
2023/07/15 14:23:48;;;;;;;2.80;2.30;;;;;;;;;;5061200;28;20733;-62
2023/07/15 14:26:16;;;;;;;4.15;1.90;;;;;;;;;;5056499;28;20250;-62
2023/07/15 14:28:43;;;;;;;3.80;2.10;;;;;;;;;;5068715;28;20220;-61
2023/07/15 14:31:11;;;;;;;3.50;1.98;;;;;;;;;;5064896;28;20216;-61
2023/07/15 14:33:39;;;;;;;2.05;1.95;;;;;;;;;;5076560;28;20592;-61
2023/07/15 14:36:06;;;;;;;3.55;2.10;;;;;;;;;;5068939;28;20798;-61
2023/07/15 14:38:33;;;;;;;2.58;1.85;;;;;;;;;;5066846;28;20208;-64
2023/07/15 14:41:01;;;;;;;7.20;2.05;;;;;;;;;;5072729;28;20224;-61
2023/07/15 14:43:28;;;;;;;2.30;2.20;;;;;;;;;;5069389;28;20224;-61
2023/07/15 14:45:55;;;;;;;2.38;2.15;;;;;;;;;;5074552;28;20369;-63
2023/07/15 14:48:23;;;;;;;2.25;2.05;;;;;;;;;;5064029;28;20197;-62
2023/07/15 14:50:50;;;;;;;2.13;2.03;;;;;;;;;;5075995;28;20223;-61